ADDS METAR Data INFO
IDs: Format: Raw Decoded Include TAF

Data at: 0934 UTC 11 Dec 2017

KSJS 110915Z AUTO 25004KT 10SM CLR 02/M06 A3010 RMK AO2 T00171056
KSJS 110855Z AUTO 26003KT 10SM CLR 02/M06 A3010 RMK AO2 T00181057
KSJS 110835Z AUTO 25004KT 10SM CLR 02/M06 A3011 RMK AO2 T00201058
KSJS 110815Z AUTO 24003KT 10SM CLR 02/M06 A3011 RMK AO2 T00221058
KSJS 110755Z AUTO 25006KT 10SM CLR 02/M06 A3010 RMK AO2 T00221060
KSJS 110735Z AUTO 25004KT 10SM CLR 02/M06 A3010 RMK AO2 T00241060
KSJS 110715Z AUTO 25007KT 10SM CLR 03/M06 A3009 RMK AO2 T00251061
KSJS 110655Z AUTO 25006KT 10SM CLR 03/M06 A3009 RMK AO2 T00271062
KSJS 110635Z AUTO 25004G08KT 10SM CLR 03/M06 A3009 RMK AO2 T00281065
KSJS 110615Z AUTO 25006KT 10SM CLR 03/M06 A3009 RMK AO2 T00271065
KSJS 110555Z AUTO 25008KT 10SM CLR 03/M07 A3008 RMK AO2 T00281066 10030 20020
KSJS 110535Z AUTO 24008KT 10SM CLR 03/M07 A3009 RMK AO2 T00291068
KSJS 110515Z AUTO 25008KT 10SM CLR 03/M07 A3009 RMK AO2 T00261070
KSJS 110455Z AUTO 24009G15KT 10SM CLR 03/M07 A3009 RMK AO2 T00271072 400361025
KSJS 110435Z AUTO 24008KT 10SM CLR 03/M07 A3009 RMK AO2 T00261075
KSJS 110415Z AUTO 24008KT 10SM CLR 03/M08 A3009 RMK AO2 T00251076
KSJS 110355Z AUTO 25008KT 10SM CLR 03/M08 A3008 RMK AO2 T00261079
KSJS 110335Z AUTO 25008G15KT 10SM CLR 03/M08 A3008 RMK AO2 T00271081
KSJS 110315Z AUTO 24009KT 10SM CLR 03/M08 A3008 RMK AO2 T00271084
KSJS 110255Z AUTO 23006KT 10SM CLR 02/M09 A3008 RMK AO2 T00231086
KSJS 110235Z AUTO 24006KT 10SM CLR 02/M09 A3008 RMK AO2 T00231090
KSJS 110215Z AUTO 24005KT 10SM CLR 02/M09 A3008 RMK AO2 T00211092
KSJS 110155Z AUTO 23005KT 10SM CLR 02/M09 A3008 RMK AO2 T00221095
KSJS 110135Z AUTO 23004KT 10SM CLR 02/M09 A3007 RMK AO2 T00211095
KSJS 110115Z AUTO 22005KT 10SM CLR 02/M10 A3006 RMK AO2 T00221097
KSJS 110055Z AUTO 22004KT 10SM CLR 02/M10 A3006 RMK AO2 T00221096
KSJS 110035Z AUTO 22004KT 10SM SCT090 03/M10 A3005 RMK AO2 T00251097
KSJS 110015Z AUTO 21005KT 10SM BKN090 03/M09 A3004 RMK AO2 T00271095
KSJS 102355Z AUTO 22005KT 10SM OVC090 03/M09 A3004 RMK AO2 T00251095 10036 20018
KSJS 102335Z AUTO 22004KT 10SM OVC090 03/M09 A3004 RMK AO2 T00251095
KSJS 102315Z AUTO 21004KT 10SM OVC090 03/M10 A3003 RMK AO2 T00291096
KSJS 102255Z AUTO 20006KT 10SM OVC090 03/M09 A3002 RMK AO2 T00271095
KSJS 102235Z AUTO 21004KT 10SM OVC090 03/M09 A3003 RMK AO2 T00271095
KSJS 102215Z AUTO 23003KT 10SM OVC090 03/M09 A3004 RMK AO2 T00281092
KSJS 102155Z AUTO 23007KT 10SM OVC090 03/M09 A3004 RMK AO2 T00321092
KSJS 102135Z AUTO 22007KT 10SM OVC090 03/M09 A3004 RMK AO2 T00331092
KSJS 102115Z AUTO 22007KT 10SM SCT090 03/M09 A3005 RMK AO2 T00311091
KSJS 102055Z AUTO 24005KT 10SM CLR 03/M09 A3005 RMK AO2 T00291087
KSJS 102030Z AUTO 24005KT 10SM SCT100 03/M09 A3006 RMK AO2 T00271087
KSJS 102015Z AUTO 23007KT 10SM SCT100 03/M09 A3006 RMK AO2 T00271089
KSJS 101955Z AUTO 25007KT 10SM OVC110 03/M09 A3007 RMK AO2 T00321086
KSJS 101935Z AUTO 27008KT 10SM OVC110 03/M08 A3007 RMK AO2 T00271082
KSJS 101915Z AUTO 23008KT 10SM BKN110 03/M08 A3009 RMK AO2 T00271081
KSJS 101855Z AUTO 25008KT 10SM SCT110 02/M08 A3009 RMK AO2 T00231083
KSJS 101830Z AUTO 24008KT 10SM CLR 02/M08 A3010 RMK AO2 T00221080
KSJS 101815Z AUTO 21008G14KT 190V250 10SM CLR 02/M08 A3010 RMK AO2 T00211076
KSJS 101755Z AUTO 22009KT 10SM CLR 02/M07 A3011 RMK AO2 T00201074 10020 21025
KSJS 101735Z AUTO 24009G15KT 10SM CLR 01/M08 A3012 RMK AO2 T00131076
KSJS 101715Z AUTO 26005G16KT 180V300 10SM CLR 01/M07 A3014 RMK AO2 T00121071
KSJS 101655Z AUTO 26008KT 10SM CLR 01/M07 A3014 RMK AO2 T00081072
KSJS 101635Z AUTO 25012G19KT 10SM CLR 00/M07 A3016 RMK AO2 T00021073
KSJS 101615Z AUTO 23006KT 10SM CLR 00/M07 A3015 RMK AO2 T00011068
KSJS 101555Z AUTO 22008KT 10SM CLR 00/M07 A3016 RMK AO2 T10031071
KSJS 101535Z AUTO 22009KT 10SM SCT028 M01/M07 A3017 RMK AO2 T10071071
KSJS 101515Z AUTO 22007KT 10SM SCT025 M01/M07 A3017 RMK AO2 T10111069
KSJS 101455Z AUTO 23005KT 10SM BKN025 M02/M07 A3018 RMK AO2 T10171072
KSJS 101435Z AUTO 26007KT 10SM OVC025 M02/M07 A3019 RMK AO2 T10211073
KSJS 101415Z AUTO 25009KT 10SM BKN025 BKN035 M02/M07 A3018 RMK AO2 T10251075
KSJS 101355Z AUTO 25008G14KT 10SM OVC035 M02/M07 A3018 RMK AO2 T10251075
KSJS 101335Z AUTO 24010G15KT 10SM OVC035 M02/M07 A3017 RMK AO2 T10251073
KSJS 101315Z AUTO 25007KT 10SM OVC035 M02/M07 A3017 RMK AO2 T10231069
KSJS 101255Z AUTO 26007KT 10SM OVC033 M02/M07 A3016 RMK AO2 T10231071
KSJS 101235Z AUTO 25006KT 10SM OVC033 M02/M07 A3015 RMK AO2 T10231070
KSJS 101210Z AUTO 24006KT 10SM OVC031 M02/M07 A3015 RMK AO2 T10211067
KSJS 101155Z AUTO 25007KT 10SM OVC031 M02/M07 A3015 RMK AO2 T10211067 11018 21021
KSJS 101135Z AUTO 27007KT 10SM OVC033 M02/M07 A3014 RMK AO2 T10211070
KSJS 101115Z AUTO 26005KT 10SM OVC035 M02/M07 A3013 RMK AO2 T10211068
KSJS 101055Z AUTO 26006KT 10SM SCT026 OVC037 M02/M07 A3012 RMK AO2 T10211069
KSJS 101035Z AUTO 26007KT 10SM SCT026 OVC037 M02/M07 A3012 RMK AO2 T10201066
KSJS 101015Z AUTO 26005KT 10SM BKN026 OVC037 M02/M07 A3012 RMK AO2 T10201067
KSJS 100955Z AUTO 26005KT 10SM SCT026 OVC037 M02/M07 A3012 RMK AO2 T10201066
KSJS 100935Z AUTO 28005G14KT 10SM SCT026 OVC037 M02/M07 A3011 RMK AO2 T10181068
KSJS 100915Z AUTO 26006KT 10SM SCT026 OVC039 M02/M07 A3011 RMK AO2 T10181067
KSJS 100855Z AUTO 28006KT 10SM SCT026 OVC039 M02/M07 A3011 RMK AO2 T10181066
KSJS 100835Z AUTO 29006KT 10SM SCT025 OVC039 M02/M07 A3010 RMK AO2 T10181066
KSJS 100815Z AUTO 28008G14KT 10SM BKN025 OVC037 M02/M07 A3010 RMK AO2 T10181066
KSJS 100755Z AUTO 28004KT 10SM OVC025 M02/M06 A3010 RMK AO2 T10181065
KSJS 100735Z AUTO 28011G18KT 10SM OVC023 M02/M06 A3009 RMK AO2 T10181064
KSJS 100715Z AUTO 28010G16KT 250V310 10SM OVC023 M02/M06 A3008 RMK AO2 T10181061
KSJS 100655Z AUTO 27008KT 10SM OVC023 M02/M06 A3007 RMK AO2 T10181057
KSJS 100635Z AUTO 28006G14KT 10SM OVC021 M02/M05 A3007 RMK AO2 T10201052
KSJS 100615Z AUTO 27007KT 240V300 10SM OVC017 M02/M05 A3006 RMK AO2 T10201047
KSJS 100555Z AUTO 28008KT 10SM -SN OVC017 M02/M04 A3006 RMK AO2 T10201045 11013 21021
KSJS 100535Z AUTO 29007KT 260V320 7SM -SN OVC017 M02/M04 A3005 RMK AO2 T10211040
KSJS 100515Z AUTO 29009G14KT 4SM -SN SCT012 BKN017 OVC022 M02/M04 A3004 RMK AO2 T10201039
KSJS 100455Z AUTO 26006KT 3SM -SN BKN010 OVC015 M02/M03 A3004 RMK AO2 T10201028 400351031
KSJS 100435Z AUTO 27006KT 1 1/2SM -SN BKN010 OVC016 M02/M03 A3003 RMK AO2 T10191029
KSJS 100415Z AUTO 27005KT 4SM -SN BKN018 OVC024 M02/M03 A3002 RMK AO2 T10161035
KSJS 100355Z AUTO 28007KT 10SM -RA BKN018 OVC024 M01/M04 A3001 RMK AO2 T10151040
KSJS 100335Z AUTO 28009KT 230V300 10SM -RA OVC018 M01/M04 A3000 RMK AO2 T10151040
KSJS 100315Z AUTO 28010G18KT 10SM -RA BKN013 OVC019 M01/M04 A2999 RMK AO2 T10151037
KSJS 100255Z AUTO 26008KT 10SM -SN BKN013 OVC019 M02/M03 A2999 RMK AO2 T10171031
KSJS 100235Z AUTO 27004KT 3SM -SN OVC015 M02/M03 A2998 RMK AO2 T10181032
KSJS 100215Z AUTO 27007KT 10SM -SN OVC017 M01/M04 A2997 RMK AO2 T10131040
KSJS 100155Z AUTO 28006G14KT 10SM -RA OVC017 M01/M04 A2997 RMK AO2 T10131042
KSJS 100135Z AUTO 26007KT 10SM -SN OVC017 M01/M04 A2997 RMK AO2 T10131041
KSJS 100115Z AUTO 28006KT 10SM OVC019 M01/M04 A2996 RMK AO2 T10131042
KSJS 100055Z AUTO 28006G15KT 10SM -RA OVC019 M01/M04 A2995 RMK AO2 T10131045
KSJS 100035Z AUTO 28011G16KT 240V300 10SM -SN BKN017 OVC024 M01/M04 A2995 RMK AO2 T10151043
KSJS 100015Z AUTO 28007KT 10SM -SN BKN017 OVC022 M01/M04 A2994 RMK AO2 T10151040
KSJS 092355Z AUTO 30005KT 5SM -SN BKN013 OVC018 M01/M03 A2993 RMK AO2 T10151034 10035 21016
KSJS 092335Z AUTO 28009G15KT 1 3/4SM -SN BKN011 OVC017 M01/M03 A2992 RMK AO2 T10141027
KSJS 092315Z AUTO 27006KT 240V300 3SM -SN SCT015 BKN023 OVC029 M01/M04 A2990 RMK AO2 T10071036
KSJS 092255Z AUTO 29008G17KT 5SM -SN SCT028 OVC037 00/M05 A2988 RMK AO2 T10011048
KSJS 092235Z AUTO 27006KT 10SM -SN BKN039 OVC046 01/M07 A2986 RMK AO2 T00051068
KSJS 092215Z AUTO 27009G14KT 230V290 10SM BKN044 OVC050 01/M07 A2985 RMK AO2 T00081075
KSJS 092155Z AUTO 27007KT 10SM OVC050 01/M08 A2983 RMK AO2 T00081076
KSJS 092135Z AUTO 26005KT 10SM BKN048 OVC060 01/M08 A2982 RMK AO2 T00081077